sensor_id;sensor_type;location;lat;lon;timestamp;P1;durP1;ratioP1;P2;durP2;ratioP2
29568;SDS011;16501;51.462;14.346;2023-06-14T00:01:42;5.10;;;2.53;;
29568;SDS011;16501;51.462;14.346;2023-06-14T00:04:10;5.85;;;3.15;;
29568;SDS011;16501;51.462;14.346;2023-06-14T00:06:35;7.43;;;3.17;;
29568;SDS011;16501;51.462;14.346;2023-06-14T00:09:00;6.05;;;2.60;;
29568;SDS011;16501;51.462;14.346;2023-06-14T00:11:26;3.22;;;2.55;;
29568;SDS011;16501;51.462;14.346;2023-06-14T00:13:51;3.50;;;2.92;;
29568;SDS011;16501;51.462;14.346;2023-06-14T00:16:17;4.47;;;2.90;;
29568;SDS011;16501;51.462;14.346;2023-06-14T00:18:44;6.53;;;2.88;;
29568;SDS011;16501;51.462;14.346;2023-06-14T00:21:09;6.50;;;2.95;;
29568;SDS011;16501;51.462;14.346;2023-06-14T00:23:35;4.13;;;2.60;;
29568;SDS011;16501;51.462;14.346;2023-06-14T00:26:00;6.15;;;2.83;;
29568;SDS011;16501;51.462;14.346;2023-06-14T00:28:25;6.47;;;2.65;;
29568;SDS011;16501;51.462;14.346;2023-06-14T00:30:50;3.40;;;2.60;;
29568;SDS011;16501;51.462;14.346;2023-06-14T00:33:16;6.78;;;3.30;;
29568;SDS011;16501;51.462;14.346;2023-06-14T00:35:41;4.20;;;3.08;;
29568;SDS011;16501;51.462;14.346;2023-06-14T00:38:06;4.63;;;2.75;;
29568;SDS011;16501;51.462;14.346;2023-06-14T00:40:31;3.83;;;2.90;;
29568;SDS011;16501;51.462;14.346;2023-06-14T00:42:57;4.75;;;3.45;;
29568;SDS011;16501;51.462;14.346;2023-06-14T00:45:22;4.93;;;3.45;;
29568;SDS011;16501;51.462;14.346;2023-06-14T00:47:47;4.45;;;3.00;;
29568;SDS011;16501;51.462;14.346;2023-06-14T00:50:17;8.13;;;3.00;;
29568;SDS011;16501;51.462;14.346;2023-06-14T00:52:45;4.53;;;3.03;;
29568;SDS011;16501;51.462;14.346;2023-06-14T00:55:10;7.30;;;3.40;;
29568;SDS011;16501;51.462;14.346;2023-06-14T00:57:35;6.10;;;2.95;;
29568;SDS011;16501;51.462;14.346;2023-06-14T01:00:02;3.78;;;2.95;;
29568;SDS011;16501;51.462;14.346;2023-06-14T01:02:29;5.68;;;3.00;;
29568;SDS011;16501;51.462;14.346;2023-06-14T01:04:55;4.57;;;3.15;;
29568;SDS011;16501;51.462;14.346;2023-06-14T01:13:03;5.78;;;3.65;;
29568;SDS011;16501;51.462;14.346;2023-06-14T01:15:35;6.63;;;3.55;;
29568;SDS011;16501;51.462;14.346;2023-06-14T01:18:03;4.90;;;3.53;;
29568;SDS011;16501;51.462;14.346;2023-06-14T01:20:29;7.45;;;3.80;;
29568;SDS011;16501;51.462;14.346;2023-06-14T01:22:57;5.22;;;3.65;;
29568;SDS011;16501;51.462;14.346;2023-06-14T01:25:22;9.52;;;3.20;;
29568;SDS011;16501;51.462;14.346;2023-06-14T01:27:48;10.48;;;4.28;;
29568;SDS011;16501;51.462;14.346;2023-06-14T01:30:15;5.72;;;3.17;;
29568;SDS011;16501;51.462;14.346;2023-06-14T01:32:42;6.55;;;3.65;;
29568;SDS011;16501;51.462;14.346;2023-06-14T01:35:07;5.13;;;3.67;;
29568;SDS011;16501;51.462;14.346;2023-06-14T01:37:33;9.70;;;4.07;;
29568;SDS011;16501;51.462;14.346;2023-06-14T01:39:59;15.63;;;4.22;;
29568;SDS011;16501;51.462;14.346;2023-06-14T01:42:24;5.95;;;3.67;;
29568;SDS011;16501;51.462;14.346;2023-06-14T01:44:50;5.65;;;3.95;;
29568;SDS011;16501;51.462;14.346;2023-06-14T01:47:17;6.55;;;4.10;;
29568;SDS011;16501;51.462;14.346;2023-06-14T01:49:42;6.28;;;3.83;;
29568;SDS011;16501;51.462;14.346;2023-06-14T01:52:08;7.10;;;3.47;;
29568;SDS011;16501;51.462;14.346;2023-06-14T01:54:34;6.00;;;3.72;;
29568;SDS011;16501;51.462;14.346;2023-06-14T01:57:02;5.95;;;4.10;;
29568;SDS011;16501;51.462;14.346;2023-06-14T01:59:28;4.43;;;3.50;;
29568;SDS011;16501;51.462;14.346;2023-06-14T02:01:53;10.23;;;4.70;;
29568;SDS011;16501;51.462;14.346;2023-06-14T02:04:18;4.65;;;3.70;;
29568;SDS011;16501;51.462;14.346;2023-06-14T02:06:44;6.80;;;4.30;;
29568;SDS011;16501;51.462;14.346;2023-06-14T02:09:09;4.88;;;3.80;;
29568;SDS011;16501;51.462;14.346;2023-06-14T02:11:34;6.47;;;4.25;;
29568;SDS011;16501;51.462;14.346;2023-06-14T02:13:59;6.07;;;4.38;;
29568;SDS011;16501;51.462;14.346;2023-06-14T02:16:26;6.13;;;4.03;;
29568;SDS011;16501;51.462;14.346;2023-06-14T02:18:53;5.97;;;4.20;;
29568;SDS011;16501;51.462;14.346;2023-06-14T02:21:18;4.80;;;4.05;;
29568;SDS011;16501;51.462;14.346;2023-06-14T02:23:44;8.18;;;4.70;;
29568;SDS011;16501;51.462;14.346;2023-06-14T02:26:09;7.45;;;4.63;;
29568;SDS011;16501;51.462;14.346;2023-06-14T02:28:34;8.93;;;4.68;;
29568;SDS011;16501;51.462;14.346;2023-06-14T02:31:00;10.20;;;5.00;;
29568;SDS011;16501;51.462;14.346;2023-06-14T02:33:26;9.25;;;5.10;;
29568;SDS011;16501;51.462;14.346;2023-06-14T02:35:51;11.57;;;4.85;;
29568;SDS011;16501;51.462;14.346;2023-06-14T02:38:17;7.75;;;4.90;;
29568;SDS011;16501;51.462;14.346;2023-06-14T02:40:43;6.65;;;4.80;;
29568;SDS011;16501;51.462;14.346;2023-06-14T02:43:08;11.18;;;5.63;;
29568;SDS011;16501;51.462;14.346;2023-06-14T02:45:33;7.78;;;4.68;;
29568;SDS011;16501;51.462;14.346;2023-06-14T02:47:59;8.23;;;4.80;;
29568;SDS011;16501;51.462;14.346;2023-06-14T02:50:24;7.57;;;4.90;;
29568;SDS011;16501;51.462;14.346;2023-06-14T02:52:49;9.68;;;4.88;;
29568;SDS011;16501;51.462;14.346;2023-06-14T02:55:14;8.73;;;4.80;;
29568;SDS011;16501;51.462;14.346;2023-06-14T02:57:40;7.68;;;4.75;;
29568;SDS011;16501;51.462;14.346;2023-06-14T03:00:05;6.22;;;4.47;;
29568;SDS011;16501;51.462;14.346;2023-06-14T03:02:34;8.88;;;4.85;;
29568;SDS011;16501;51.462;14.346;2023-06-14T03:05:00;7.32;;;4.75;;
29568;SDS011;16501;51.462;14.346;2023-06-14T03:07:26;9.10;;;4.72;;
29568;SDS011;16501;51.462;14.346;2023-06-14T03:09:52;6.93;;;4.18;;
29568;SDS011;16501;51.462;14.346;2023-06-14T03:12:18;7.28;;;4.50;;
29568;SDS011;16501;51.462;14.346;2023-06-14T03:14:43;10.80;;;4.90;;
29568;SDS011;16501;51.462;14.346;2023-06-14T03:17:11;11.07;;;5.22;;
29568;SDS011;16501;51.462;14.346;2023-06-14T03:19:36;8.40;;;4.80;;
29568;SDS011;16501;51.462;14.346;2023-06-14T03:22:02;6.40;;;4.97;;
29568;SDS011;16501;51.462;14.346;2023-06-14T03:24:27;8.18;;;5.50;;
29568;SDS011;16501;51.462;14.346;2023-06-14T03:26:53;6.32;;;5.10;;
29568;SDS011;16501;51.462;14.346;2023-06-14T03:29:19;22.48;;;5.80;;
29568;SDS011;16501;51.462;14.346;2023-06-14T03:32:00;7.05;;;5.40;;
29568;SDS011;16501;51.462;14.346;2023-06-14T03:34:27;5.75;;;4.65;;
29568;SDS011;16501;51.462;14.346;2023-06-14T03:36:52;9.70;;;4.85;;
29568;SDS011;16501;51.462;14.346;2023-06-14T03:39:18;7.88;;;5.03;;
29568;SDS011;16501;51.462;14.346;2023-06-14T03:41:43;7.43;;;5.10;;
29568;SDS011;16501;51.462;14.346;2023-06-14T03:44:08;6.90;;;4.70;;
29568;SDS011;16501;51.462;14.346;2023-06-14T03:46:34;8.57;;;5.07;;
29568;SDS011;16501;51.462;14.346;2023-06-14T03:48:59;12.45;;;5.82;;
29568;SDS011;16501;51.462;14.346;2023-06-14T03:51:25;10.48;;;5.82;;
29568;SDS011;16501;51.462;14.346;2023-06-14T03:53:51;9.07;;;6.15;;
29568;SDS011;16501;51.462;14.346;2023-06-14T03:56:16;7.65;;;5.80;;
29568;SDS011;16501;51.462;14.346;2023-06-14T03:58:41;6.82;;;5.88;;
29568;SDS011;16501;51.462;14.346;2023-06-14T04:01:06;7.85;;;6.32;;
29568;SDS011;16501;51.462;14.346;2023-06-14T04:03:32;7.65;;;5.43;;
29568;SDS011;16501;51.462;14.346;2023-06-14T04:05:59;8.57;;;5.95;;
29568;SDS011;16501;51.462;14.346;2023-06-14T04:08:25;8.68;;;6.25;;
29568;SDS011;16501;51.462;14.346;2023-06-14T04:10:51;10.68;;;6.47;;
29568;SDS011;16501;51.462;14.346;2023-06-14T04:13:16;10.60;;;5.82;;
29568;SDS011;16501;51.462;14.346;2023-06-14T04:15:42;10.02;;;7.25;;
29568;SDS011;16501;51.462;14.346;2023-06-14T04:18:08;9.35;;;6.68;;
29568;SDS011;16501;51.462;14.346;2023-06-14T04:20:34;11.05;;;6.40;;
29568;SDS011;16501;51.462;14.346;2023-06-14T04:23:10;11.85;;;6.70;;
29568;SDS011;16501;51.462;14.346;2023-06-14T04:25:37;9.75;;;6.60;;
29568;SDS011;16501;51.462;14.346;2023-06-14T04:28:02;8.63;;;5.90;;
29568;SDS011;16501;51.462;14.346;2023-06-14T04:30:28;19.90;;;7.13;;
29568;SDS011;16501;51.462;14.346;2023-06-14T04:32:56;12.63;;;6.70;;
29568;SDS011;16501;51.462;14.346;2023-06-14T04:35:21;10.50;;;7.03;;
29568;SDS011;16501;51.462;14.346;2023-06-14T04:37:48;10.20;;;6.90;;
29568;SDS011;16501;51.462;14.346;2023-06-14T04:40:14;9.00;;;6.70;;
29568;SDS011;16501;51.462;14.346;2023-06-14T04:42:39;11.43;;;7.22;;
29568;SDS011;16501;51.462;14.346;2023-06-14T04:45:06;7.47;;;6.43;;
29568;SDS011;16501;51.462;14.346;2023-06-14T04:47:32;9.82;;;6.70;;
29568;SDS011;16501;51.462;14.346;2023-06-14T04:49:57;13.77;;;6.82;;
29568;SDS011;16501;51.462;14.346;2023-06-14T04:52:23;11.18;;;6.32;;
29568;SDS011;16501;51.462;14.346;2023-06-14T04:54:51;11.48;;;6.90;;
29568;SDS011;16501;51.462;14.346;2023-06-14T04:57:22;13.15;;;6.38;;
29568;SDS011;16501;51.462;14.346;2023-06-14T04:59:50;8.75;;;6.03;;
29568;SDS011;16501;51.462;14.346;2023-06-14T05:02:19;14.93;;;6.85;;
29568;SDS011;16501;51.462;14.346;2023-06-14T05:04:45;9.30;;;6.40;;
29568;SDS011;16501;51.462;14.346;2023-06-14T05:07:12;13.15;;;5.95;;
29568;SDS011;16501;51.462;14.346;2023-06-14T05:09:39;9.15;;;6.53;;
29568;SDS011;16501;51.462;14.346;2023-06-14T05:12:04;11.00;;;6.47;;
29568;SDS011;16501;51.462;14.346;2023-06-14T05:14:32;9.80;;;6.50;;
29568;SDS011;16501;51.462;14.346;2023-06-14T05:17:00;8.07;;;6.40;;
29568;SDS011;16501;51.462;14.346;2023-06-14T05:19:27;9.90;;;6.40;;
29568;SDS011;16501;51.462;14.346;2023-06-14T05:21:53;6.55;;;5.10;;
29568;SDS011;16501;51.462;14.346;2023-06-14T05:24:18;9.60;;;6.47;;
29568;SDS011;16501;51.462;14.346;2023-06-14T05:26:44;8.68;;;6.05;;
29568;SDS011;16501;51.462;14.346;2023-06-14T05:29:10;9.13;;;6.00;;
29568;SDS011;16501;51.462;14.346;2023-06-14T05:31:35;6.97;;;5.45;;
29568;SDS011;16501;51.462;14.346;2023-06-14T05:34:00;7.55;;;5.40;;
29568;SDS011;16501;51.462;14.346;2023-06-14T05:36:25;9.38;;;6.32;;
29568;SDS011;16501;51.462;14.346;2023-06-14T05:38:52;8.75;;;5.35;;
29568;SDS011;16501;51.462;14.346;2023-06-14T05:41:22;7.75;;;5.53;;
29568;SDS011;16501;51.462;14.346;2023-06-14T05:43:56;8.40;;;5.15;;
29568;SDS011;16501;51.462;14.346;2023-06-14T05:46:22;8.23;;;5.93;;
29568;SDS011;16501;51.462;14.346;2023-06-14T05:48:50;7.57;;;5.07;;
29568;SDS011;16501;51.462;14.346;2023-06-14T05:51:16;6.85;;;5.15;;
29568;SDS011;16501;51.462;14.346;2023-06-14T05:53:44;7.95;;;5.25;;
29568;SDS011;16501;51.462;14.346;2023-06-14T05:56:11;7.25;;;5.53;;
29568;SDS011;16501;51.462;14.346;2023-06-14T05:58:36;13.30;;;5.53;;
29568;SDS011;16501;51.462;14.346;2023-06-14T06:01:01;7.85;;;4.95;;
29568;SDS011;16501;51.462;14.346;2023-06-14T06:03:27;12.70;;;5.15;;
29568;SDS011;16501;51.462;14.346;2023-06-14T06:05:54;9.48;;;5.50;;
29568;SDS011;16501;51.462;14.346;2023-06-14T06:08:20;9.85;;;5.50;;
29568;SDS011;16501;51.462;14.346;2023-06-14T06:10:46;14.98;;;5.28;;
29568;SDS011;16501;51.462;14.346;2023-06-14T06:13:11;7.93;;;5.32;;
29568;SDS011;16501;51.462;14.346;2023-06-14T06:15:37;8.68;;;5.60;;
29568;SDS011;16501;51.462;14.346;2023-06-14T06:18:05;12.10;;;5.88;;
29568;SDS011;16501;51.462;14.346;2023-06-14T06:20:31;13.10;;;5.88;;
29568;SDS011;16501;51.462;14.346;2023-06-14T06:22:59;11.50;;;5.85;;
29568;SDS011;16501;51.462;14.346;2023-06-14T06:25:26;10.27;;;5.55;;
29568;SDS011;16501;51.462;14.346;2023-06-14T06:27:52;13.10;;;6.20;;
29568;SDS011;16501;51.462;14.346;2023-06-14T06:30:18;13.73;;;6.82;;
29568;SDS011;16501;51.462;14.346;2023-06-14T06:32:44;7.65;;;5.85;;
29568;SDS011;16501;51.462;14.346;2023-06-14T06:35:09;9.80;;;5.82;;
29568;SDS011;16501;51.462;14.346;2023-06-14T06:37:36;12.57;;;6.32;;
29568;SDS011;16501;51.462;14.346;2023-06-14T06:40:01;7.13;;;5.93;;
29568;SDS011;16501;51.462;14.346;2023-06-14T06:42:29;7.30;;;5.40;;
29568;SDS011;16501;51.462;14.346;2023-06-14T06:44:54;18.15;;;5.65;;
29568;SDS011;16501;51.462;14.346;2023-06-14T06:47:19;13.65;;;6.10;;
29568;SDS011;16501;51.462;14.346;2023-06-14T06:49:45;10.95;;;5.63;;
29568;SDS011;16501;51.462;14.346;2023-06-14T06:52:10;10.82;;;5.53;;
29568;SDS011;16501;51.462;14.346;2023-06-14T06:54:35;12.40;;;5.35;;
29568;SDS011;16501;51.462;14.346;2023-06-14T06:57:00;14.55;;;6.18;;
29568;SDS011;16501;51.462;14.346;2023-06-14T06:59:29;13.60;;;5.53;;
29568;SDS011;16501;51.462;14.346;2023-06-14T07:01:55;11.13;;;5.95;;
29568;SDS011;16501;51.462;14.346;2023-06-14T07:04:20;8.30;;;5.72;;
29568;SDS011;16501;51.462;14.346;2023-06-14T07:06:45;8.18;;;5.25;;
29568;SDS011;16501;51.462;14.346;2023-06-14T07:09:11;5.85;;;4.38;;
29568;SDS011;16501;51.462;14.346;2023-06-14T07:11:46;8.75;;;5.32;;
29568;SDS011;16501;51.462;14.346;2023-06-14T07:14:12;9.82;;;5.10;;
29568;SDS011;16501;51.462;14.346;2023-06-14T07:16:37;7.07;;;5.30;;
29568;SDS011;16501;51.462;14.346;2023-06-14T07:19:03;6.93;;;5.13;;
29568;SDS011;16501;51.462;14.346;2023-06-14T07:21:29;8.88;;;5.10;;
29568;SDS011;16501;51.462;14.346;2023-06-14T07:23:54;9.45;;;4.82;;
29568;SDS011;16501;51.462;14.346;2023-06-14T07:26:20;9.52;;;4.38;;
29568;SDS011;16501;51.462;14.346;2023-06-14T07:28:46;8.00;;;4.78;;
29568;SDS011;16501;51.462;14.346;2023-06-14T07:31:13;6.60;;;4.15;;
29568;SDS011;16501;51.462;14.346;2023-06-14T07:33:40;9.05;;;4.90;;
29568;SDS011;16501;51.462;14.346;2023-06-14T07:36:06;5.63;;;4.72;;
29568;SDS011;16501;51.462;14.346;2023-06-14T07:38:32;12.20;;;4.93;;
29568;SDS011;16501;51.462;14.346;2023-06-14T07:40:57;6.38;;;4.60;;
29568;SDS011;16501;51.462;14.346;2023-06-14T07:43:22;6.05;;;4.47;;
29568;SDS011;16501;51.462;14.346;2023-06-14T07:45:48;6.45;;;4.40;;
29568;SDS011;16501;51.462;14.346;2023-06-14T07:48:13;8.32;;;4.53;;
29568;SDS011;16501;51.462;14.346;2023-06-14T07:50:38;5.03;;;4.28;;
29568;SDS011;16501;51.462;14.346;2023-06-14T07:53:04;6.53;;;4.53;;
29568;SDS011;16501;51.462;14.346;2023-06-14T07:55:29;7.05;;;4.53;;
29568;SDS011;16501;51.462;14.346;2023-06-14T07:57:57;6.22;;;4.47;;
29568;SDS011;16501;51.462;14.346;2023-06-14T08:00:23;6.88;;;4.78;;
29568;SDS011;16501;51.462;14.346;2023-06-14T08:02:48;6.25;;;4.65;;
29568;SDS011;16501;51.462;14.346;2023-06-14T08:05:13;6.47;;;4.22;;
29568;SDS011;16501;51.462;14.346;2023-06-14T08:07:39;9.60;;;4.85;;
29568;SDS011;16501;51.462;14.346;2023-06-14T08:10:05;9.88;;;5.22;;
29568;SDS011;16501;51.462;14.346;2023-06-14T08:12:31;5.88;;;4.43;;
29568;SDS011;16501;51.462;14.346;2023-06-14T08:14:57;10.73;;;4.40;;
29568;SDS011;16501;51.462;14.346;2023-06-14T08:17:25;6.20;;;4.20;;
29568;SDS011;16501;51.462;14.346;2023-06-14T08:19:50;7.13;;;4.70;;
29568;SDS011;16501;51.462;14.346;2023-06-14T08:22:15;6.13;;;4.53;;
29568;SDS011;16501;51.462;14.346;2023-06-14T08:24:41;7.40;;;4.60;;
29568;SDS011;16501;51.462;14.346;2023-06-14T08:27:07;4.80;;;4.32;;
29568;SDS011;16501;51.462;14.346;2023-06-14T08:29:32;6.72;;;4.72;;
29568;SDS011;16501;51.462;14.346;2023-06-14T08:31:58;6.55;;;4.78;;
29568;SDS011;16501;51.462;14.346;2023-06-14T08:34:25;6.50;;;4.93;;
29568;SDS011;16501;51.462;14.346;2023-06-14T08:36:51;7.13;;;5.20;;
29568;SDS011;16501;51.462;14.346;2023-06-14T08:39:16;7.57;;;5.43;;
29568;SDS011;16501;51.462;14.346;2023-06-14T08:41:43;11.52;;;5.53;;
29568;SDS011;16501;51.462;14.346;2023-06-14T08:44:11;7.75;;;5.03;;
29568;SDS011;16501;51.462;14.346;2023-06-14T08:46:37;6.00;;;5.05;;
29568;SDS011;16501;51.462;14.346;2023-06-14T08:49:03;6.15;;;5.07;;
29568;SDS011;16501;51.462;14.346;2023-06-14T08:51:31;6.65;;;5.10;;
29568;SDS011;16501;51.462;14.346;2023-06-14T08:53:59;8.93;;;5.25;;
29568;SDS011;16501;51.462;14.346;2023-06-14T08:56:26;7.78;;;5.38;;
29568;SDS011;16501;51.462;14.346;2023-06-14T08:58:53;6.65;;;5.20;;
29568;SDS011;16501;51.462;14.346;2023-06-14T09:01:19;5.20;;;4.63;;
29568;SDS011;16501;51.462;14.346;2023-06-14T09:03:46;5.53;;;4.78;;
29568;SDS011;16501;51.462;14.346;2023-06-14T09:06:13;6.32;;;4.38;;
29568;SDS011;16501;51.462;14.346;2023-06-14T09:08:43;9.13;;;4.25;;
29568;SDS011;16501;51.462;14.346;2023-06-14T09:11:12;10.52;;;4.50;;
29568;SDS011;16501;51.462;14.346;2023-06-14T09:13:39;5.90;;;3.90;;
29568;SDS011;16501;51.462;14.346;2023-06-14T09:16:05;4.47;;;3.65;;
29568;SDS011;16501;51.462;14.346;2023-06-14T09:18:35;5.25;;;4.45;;
29568;SDS011;16501;51.462;14.346;2023-06-14T09:21:01;6.15;;;4.95;;
29568;SDS011;16501;51.462;14.346;2023-06-14T09:23:27;10.18;;;4.80;;
29568;SDS011;16501;51.462;14.346;2023-06-14T09:25:52;5.90;;;5.30;;
29568;SDS011;16501;51.462;14.346;2023-06-14T09:28:17;6.25;;;5.00;;
29568;SDS011;16501;51.462;14.346;2023-06-14T09:30:43;4.82;;;4.00;;
29568;SDS011;16501;51.462;14.346;2023-06-14T09:33:08;7.07;;;5.40;;
29568;SDS011;16501;51.462;14.346;2023-06-14T09:35:34;8.43;;;5.10;;
29568;SDS011;16501;51.462;14.346;2023-06-14T09:38:00;11.10;;;5.28;;
29568;SDS011;16501;51.462;14.346;2023-06-14T09:40:26;6.15;;;4.70;;
29568;SDS011;16501;51.462;14.346;2023-06-14T09:42:51;6.32;;;4.85;;
29568;SDS011;16501;51.462;14.346;2023-06-14T09:45:17;6.75;;;4.85;;
29568;SDS011;16501;51.462;14.346;2023-06-14T09:47:46;6.57;;;4.45;;
29568;SDS011;16501;51.462;14.346;2023-06-14T09:50:13;5.93;;;4.63;;
29568;SDS011;16501;51.462;14.346;2023-06-14T09:52:39;5.57;;;4.47;;
29568;SDS011;16501;51.462;14.346;2023-06-14T09:55:09;7.80;;;4.30;;
29568;SDS011;16501;51.462;14.346;2023-06-14T09:57:38;4.47;;;4.03;;
29568;SDS011;16501;51.462;14.346;2023-06-14T10:00:07;4.60;;;3.95;;
29568;SDS011;16501;51.462;14.346;2023-06-14T10:02:37;5.82;;;4.57;;
29568;SDS011;16501;51.462;14.346;2023-06-14T10:05:04;8.32;;;4.20;;
29568;SDS011;16501;51.462;14.346;2023-06-14T10:07:32;10.65;;;3.95;;
29568;SDS011;16501;51.462;14.346;2023-06-14T10:10:38;4.50;;;3.58;;
29568;SDS011;16501;51.462;14.346;2023-06-14T10:13:05;5.93;;;3.65;;
29568;SDS011;16501;51.462;14.346;2023-06-14T10:15:32;5.15;;;3.65;;
29568;SDS011;16501;51.462;14.346;2023-06-14T10:18:11;6.82;;;3.45;;
29568;SDS011;16501;51.462;14.346;2023-06-14T10:21:08;5.60;;;3.73;;
29568;SDS011;16501;51.462;14.346;2023-06-14T10:23:41;11.00;;;3.45;;
29568;SDS011;16501;51.462;14.346;2023-06-14T10:26:08;10.50;;;3.55;;
29568;SDS011;16501;51.462;14.346;2023-06-14T10:28:36;9.60;;;3.35;;
29568;SDS011;16501;51.462;14.346;2023-06-14T10:31:09;7.75;;;3.28;;
29568;SDS011;16501;51.462;14.346;2023-06-14T10:33:37;5.65;;;3.88;;
29568;SDS011;16501;51.462;14.346;2023-06-14T10:36:08;5.93;;;3.40;;
29568;SDS011;16501;51.462;14.346;2023-06-14T10:39:20;3.55;;;3.00;;
29568;SDS011;16501;51.462;14.346;2023-06-14T10:41:55;8.15;;;3.28;;
29568;SDS011;16501;51.462;14.346;2023-06-14T10:46:46;6.37;;;3.60;;
29568;SDS011;16501;51.462;14.346;2023-06-14T10:49:17;5.05;;;3.47;;
29568;SDS011;16501;51.462;14.346;2023-06-14T10:51:44;4.93;;;3.45;;
29568;SDS011;16501;51.462;14.346;2023-06-14T10:54:14;4.85;;;3.00;;
29568;SDS011;16501;51.462;14.346;2023-06-14T10:59:16;5.43;;;3.00;;
29568;SDS011;16501;51.462;14.346;2023-06-14T11:10:37;6.55;;;3.70;;
29568;SDS011;16501;51.462;14.346;2023-06-14T11:13:03;3.38;;;2.92;;
29568;SDS011;16501;51.462;14.346;2023-06-14T11:15:30;6.85;;;4.03;;
29568;SDS011;16501;51.462;14.346;2023-06-14T11:17:56;5.43;;;3.78;;
29568;SDS011;16501;51.462;14.346;2023-06-14T11:20:24;4.13;;;3.45;;
29568;SDS011;16501;51.462;14.346;2023-06-14T11:22:51;6.40;;;3.40;;
29568;SDS011;16501;51.462;14.346;2023-06-14T11:25:17;6.85;;;3.85;;
29568;SDS011;16501;51.462;14.346;2023-06-14T11:27:42;6.95;;;4.28;;
29568;SDS011;16501;51.462;14.346;2023-06-14T11:30:08;6.13;;;3.20;;
29568;SDS011;16501;51.462;14.346;2023-06-14T11:32:35;6.78;;;3.20;;
29568;SDS011;16501;51.462;14.346;2023-06-14T11:35:01;6.00;;;3.70;;
29568;SDS011;16501;51.462;14.346;2023-06-14T11:37:29;10.15;;;3.63;;
29568;SDS011;16501;51.462;14.346;2023-06-14T11:39:58;5.00;;;3.47;;
29568;SDS011;16501;51.462;14.346;2023-06-14T11:42:24;12.18;;;3.63;;
29568;SDS011;16501;51.462;14.346;2023-06-14T11:44:53;7.40;;;3.45;;
29568;SDS011;16501;51.462;14.346;2023-06-14T11:47:18;3.95;;;3.40;;
29568;SDS011;16501;51.462;14.346;2023-06-14T11:49:43;8.40;;;3.85;;
29568;SDS011;16501;51.462;14.346;2023-06-14T11:52:09;6.03;;;3.53;;
29568;SDS011;16501;51.462;14.346;2023-06-14T11:54:34;4.47;;;3.35;;
29568;SDS011;16501;51.462;14.346;2023-06-14T11:57:00;6.38;;;3.60;;
29568;SDS011;16501;51.462;14.346;2023-06-14T11:59:25;3.95;;;2.80;;
29568;SDS011;16501;51.462;14.346;2023-06-14T12:01:54;3.53;;;3.17;;
29568;SDS011;16501;51.462;14.346;2023-06-14T12:04:23;6.93;;;3.40;;
29568;SDS011;16501;51.462;14.346;2023-06-14T12:06:50;5.55;;;3.30;;
29568;SDS011;16501;51.462;14.346;2023-06-14T12:09:18;5.18;;;3.20;;
29568;SDS011;16501;51.462;14.346;2023-06-14T12:11:44;4.05;;;3.50;;
29568;SDS011;16501;51.462;14.346;2023-06-14T12:14:10;5.13;;;3.22;;
29568;SDS011;16501;51.462;14.346;2023-06-14T12:16:37;6.00;;;3.30;;
29568;SDS011;16501;51.462;14.346;2023-06-14T12:19:16;8.27;;;3.10;;
29568;SDS011;16501;51.462;14.346;2023-06-14T12:21:43;7.57;;;3.38;;
29568;SDS011;16501;51.462;14.346;2023-06-14T12:24:13;4.80;;;2.67;;
29568;SDS011;16501;51.462;14.346;2023-06-14T12:26:38;3.50;;;2.85;;
29568;SDS011;16501;51.462;14.346;2023-06-14T12:29:05;6.15;;;2.67;;
29568;SDS011;16501;51.462;14.346;2023-06-14T12:31:33;3.10;;;2.70;;
29568;SDS011;16501;51.462;14.346;2023-06-14T12:33:59;6.15;;;3.22;;
29568;SDS011;16501;51.462;14.346;2023-06-14T12:36:24;5.25;;;3.17;;
29568;SDS011;16501;51.462;14.346;2023-06-14T12:38:50;4.57;;;3.10;;
29568;SDS011;16501;51.462;14.346;2023-06-14T12:41:18;6.75;;;3.20;;
29568;SDS011;16501;51.462;14.346;2023-06-14T12:43:46;4.90;;;3.65;;
29568;SDS011;16501;51.462;14.346;2023-06-14T12:46:11;3.85;;;2.70;;
29568;SDS011;16501;51.462;14.346;2023-06-14T12:48:36;5.90;;;2.65;;
29568;SDS011;16501;51.462;14.346;2023-06-14T12:51:01;3.90;;;2.72;;
29568;SDS011;16501;51.462;14.346;2023-06-14T12:53:27;4.55;;;2.67;;
29568;SDS011;16501;51.462;14.346;2023-06-14T12:55:52;6.80;;;2.78;;
29568;SDS011;16501;51.462;14.346;2023-06-14T12:58:17;4.57;;;2.75;;
29568;SDS011;16501;51.462;14.346;2023-06-14T13:00:44;3.97;;;2.63;;
29568;SDS011;16501;51.462;14.346;2023-06-14T13:03:10;5.25;;;3.33;;
29568;SDS011;16501;51.462;14.346;2023-06-14T13:05:35;4.38;;;3.08;;
29568;SDS011;16501;51.462;14.346;2023-06-14T13:08:02;4.70;;;2.90;;
29568;SDS011;16501;51.462;14.346;2023-06-14T13:10:27;5.53;;;2.78;;
29568;SDS011;16501;51.462;14.346;2023-06-14T13:12:53;7.85;;;3.10;;
29568;SDS011;16501;51.462;14.346;2023-06-14T13:15:18;2.92;;;2.42;;
29568;SDS011;16501;51.462;14.346;2023-06-14T13:17:43;3.40;;;2.97;;
29568;SDS011;16501;51.462;14.346;2023-06-14T13:20:13;2.50;;;2.30;;
29568;SDS011;16501;51.462;14.346;2023-06-14T13:22:39;8.00;;;2.65;;
29568;SDS011;16501;51.462;14.346;2023-06-14T13:25:04;3.00;;;2.60;;
29568;SDS011;16501;51.462;14.346;2023-06-14T13:27:31;4.13;;;2.55;;
29568;SDS011;16501;51.462;14.346;2023-06-14T13:29:56;7.60;;;2.88;;
29568;SDS011;16501;51.462;14.346;2023-06-14T13:32:22;4.63;;;2.70;;
29568;SDS011;16501;51.462;14.346;2023-06-14T13:34:48;5.95;;;2.67;;
29568;SDS011;16501;51.462;14.346;2023-06-14T13:37:13;9.05;;;3.00;;
29568;SDS011;16501;51.462;14.346;2023-06-14T13:39:39;4.72;;;2.72;;
29568;SDS011;16501;51.462;14.346;2023-06-14T13:42:05;2.70;;;2.40;;
29568;SDS011;16501;51.462;14.346;2023-06-14T13:44:30;2.42;;;2.22;;
29568;SDS011;16501;51.462;14.346;2023-06-14T13:46:55;3.15;;;2.50;;
29568;SDS011;16501;51.462;14.346;2023-06-14T13:49:21;3.75;;;3.00;;
29568;SDS011;16501;51.462;14.346;2023-06-14T13:51:47;3.03;;;2.72;;
29568;SDS011;16501;51.462;14.346;2023-06-14T13:54:12;3.72;;;2.40;;
29568;SDS011;16501;51.462;14.346;2023-06-14T13:56:39;5.22;;;2.63;;
29568;SDS011;16501;51.462;14.346;2023-06-14T13:59:04;3.92;;;3.15;;
29568;SDS011;16501;51.462;14.346;2023-06-14T14:01:29;4.55;;;2.80;;
29568;SDS011;16501;51.462;14.346;2023-06-14T14:03:55;5.72;;;2.72;;
29568;SDS011;16501;51.462;14.346;2023-06-14T14:06:20;2.97;;;2.63;;
29568;SDS011;16501;51.462;14.346;2023-06-14T14:08:45;3.13;;;2.83;;
29568;SDS011;16501;51.462;14.346;2023-06-14T14:11:11;5.47;;;2.88;;
29568;SDS011;16501;51.462;14.346;2023-06-14T14:13:36;5.35;;;3.03;;
29568;SDS011;16501;51.462;14.346;2023-06-14T14:16:02;5.30;;;3.03;;
29568;SDS011;16501;51.462;14.346;2023-06-14T14:18:28;4.60;;;2.35;;
29568;SDS011;16501;51.462;14.346;2023-06-14T14:20:53;3.88;;;3.20;;
29568;SDS011;16501;51.462;14.346;2023-06-14T14:23:18;6.22;;;2.92;;
29568;SDS011;16501;51.462;14.346;2023-06-14T14:25:45;5.53;;;2.63;;
29568;SDS011;16501;51.462;14.346;2023-06-14T14:28:10;3.33;;;2.42;;
29568;SDS011;16501;51.462;14.346;2023-06-14T14:30:36;7.38;;;2.53;;
29568;SDS011;16501;51.462;14.346;2023-06-14T14:33:04;5.22;;;3.00;;
29568;SDS011;16501;51.462;14.346;2023-06-14T14:35:30;5.82;;;2.83;;
29568;SDS011;16501;51.462;14.346;2023-06-14T14:37:55;6.88;;;2.72;;
29568;SDS011;16501;51.462;14.346;2023-06-14T14:40:21;2.60;;;2.40;;
29568;SDS011;16501;51.462;14.346;2023-06-14T14:42:47;3.53;;;2.25;;
29568;SDS011;16501;51.462;14.346;2023-06-14T14:45:12;3.05;;;2.17;;
29568;SDS011;16501;51.462;14.346;2023-06-14T14:47:38;6.80;;;2.60;;
29568;SDS011;16501;51.462;14.346;2023-06-14T14:50:03;2.40;;;2.00;;